Tomales, CA

6:26 PM PDT on September 17, 2014 (GMT -0700)
MesoWest | Change Station
CLOSE
Current Station
Personal Weather Station
Location: Valley Ford, CA
Elevation: 15 ft
Nearby Weather Stations
Active Advisory: Beach Hazard Statement

Elev 15 ft 38.31 °N, 122.90 °W | Updated 31 days ago

Thunderstorm
Thunderstorm
69 °F
Feels Like 69 °F
N
6
Wind Variable Wind from SW
Gusts 11 mph

Today
High -- | Low -- °F
--% Chance of Precip.
Yesterday
High -- | Low -- °F
Precip. -- in
6:55 AM 7:16 PM
Waning Crescent, 31% visible
Pressure 29.72 in
Visibility 10.0 miles
Clouds Overcast 4400 ft
Dew Point 56 °F
Humidity 64%
Rainfall -9999.00 in
Snow Depth 2 in , 0 in , 0 in
UV 0 out of 12
Pollen 5.10 out of 12
Air Quality Not available.
Flu Activity Not available.
METAR KSTS 180053Z 21006KT 10SM OVC044 22/14 A2973 RMK AO2 SLP062 T02220139

More Conditions Fewer Conditions

Pressure 29.72 in
Visibility 10.0 miles
Clouds Overcast 4400 ft
Dew Point 56 °F
Humidity 64%
Rainfall -9999.00 in
Snow Depth 2 in , 0 in , 0 in
UV 0 out of 12
Pollen 5.10 out of 12
Air Quality Not available.
Flu Activity Not available.
METAR KSTS 180053Z 21006KT 10SM OVC044 22/14 A2973 RMK AO2 SLP062 T02220139

More Conditions Fewer Conditions

10-Day Weather Forecast

Almanac

Astronomy

Sep. 17, 2014 Rise Set
Actual Time 6:55 AM PDT 7:16 PM PDT
Civil Twilight 6:28 AM PDT 7:42 PM PDT
Nautical Twilight 5:57 AM PDT 8:13 PM PDT
Astronomical Twilight 5:25 AM PDT 8:45 PM PDT
Moon 1:03 AM PDT (9/17) 3:26 PM PDT (9/17)
Length of Visible Light 13h 14m
Length of Day
12h 21m
Tomorrow will be 2m 28s shorter.
Waning Crescent, 31% of the Moon is Illuminated
Today
Waning Crescent
Sep 24
New
Oct 1
First Quarter
Oct 8
Full
Oct 15
Last Quarter

Today's Extremes

State Highs State Lows

Community

WunderPhotos

Upload Photos

1,754,245 photos uploaded!

Nearby

Snow Depth

Station Depth Elevation
CSS Lab 2 in 6900 ft
Spratt Creek 0 in 6200 ft
Leavitt Meadows 0 in 7200 ft
Tahoe City Cross 0 in 6750 ft
Adin Mountain 2 in 6200 ft

Earthquake Activity

City Distance Mag. Time & Date
Cobb, California 34 miles 2.7 1:23 PM PDT
2014-09-16
Minimum magnitude displayed is 2.5.

Coastal Water Temperatures

Place Temperature
Point Reyes, CA 62.1 °F
Arena Cove, CA 60.1 °F
San Francisco, CA 66.0 °F
Richmond, CA 68.0 °F

Nearby Weather Stations